Time;durP1;ratioP1;P1;durP2;ratioP2;P2;SDS_P1;SDS_P2;PMS_P1;PMS_P2;Temp;Humidity;BMP_temperature;BMP_pressure;BME280_temperature;BME280_humidity;BME280_pressure;Samples;Min_cycle;Max_cycle;Signal;HPM_P1;HPM_P2
2021/09/10 00:02:22;;;;;;;11.20;6.95;;;;;;;16.70;92.67;101228.50;5054874;28;20037;-73
2021/09/10 00:04:47;;;;;;;8.65;5.70;;;;;;;16.72;92.76;101229.19;5055509;28;20108;-73
2021/09/10 00:07:13;;;;;;;8.60;5.65;;;;;;;16.74;91.68;101234.38;5055372;28;20036;-73
2021/09/10 00:09:38;;;;;;;8.07;5.63;;;;;;;16.76;91.78;101243.09;5053951;28;20162;-73
2021/09/10 00:12:04;;;;;;;8.75;5.30;;;;;;;16.79;91.36;101239.25;5055250;28;20474;-73
2021/09/10 00:14:29;;;;;;;11.13;4.80;;;;;;;16.82;91.11;101237.03;5054651;28;20037;-73
2021/09/10 00:16:55;;;;;;;8.23;5.38;;;;;;;16.84;91.24;101235.03;5055123;28;20030;-73
2021/09/10 00:19:20;;;;;;;7.07;5.10;;;;;;;16.87;90.93;101234.72;5054512;28;20067;-73
2021/09/10 00:21:46;;;;;;;9.85;5.63;;;;;;;16.89;91.48;101235.38;5055089;28;20098;-73
2021/09/10 00:24:11;;;;;;;12.55;6.47;;;;;;;16.89;90.55;101221.13;5055179;28;20037;-73
2021/09/10 00:26:37;;;;;;;14.77;6.53;;;;;;;16.90;91.04;101226.31;5054042;28;20029;-73
2021/09/10 00:29:02;;;;;;;9.77;6.38;;;;;;;16.89;90.79;101221.94;5054968;28;20453;-73
2021/09/10 00:31:27;;;;;;;12.73;7.35;;;;;;;16.89;91.10;101221.94;5054386;28;20068;-73
2021/09/10 00:33:53;;;;;;;13.80;7.35;;;;;;;16.85;90.49;101215.19;5054626;28;20519;-73
2021/09/10 00:36:18;;;;;;;8.82;6.55;;;;;;;16.81;90.87;101221.94;5053965;28;20033;-74
2021/09/10 00:38:43;;;;;;;10.07;7.13;;;;;;;16.75;91.38;101218.09;5054752;28;20032;-73
2021/09/10 00:41:09;;;;;;;11.77;6.65;;;;;;;16.67;90.97;101217.25;5054756;28;20029;-73
2021/09/10 00:43:34;;;;;;;12.18;5.38;;;;;;;16.58;90.96;101219.09;5054121;28;20159;-73
2021/09/10 00:45:59;;;;;;;10.02;6.75;;;;;;;16.52;91.65;101219.78;5054697;28;20075;-73
2021/09/10 00:48:26;;;;;;;12.50;7.43;;;;;;;16.44;91.91;101215.25;5053759;28;20385;-73
2021/09/10 00:50:52;;;;;;;14.30;8.43;;;;;;;16.35;91.43;101214.41;5054603;28;20029;-73
2021/09/10 00:53:18;;;;;;;13.70;8.00;;;;;;;16.31;91.79;101210.38;5054281;28;20444;-73
2021/09/10 00:55:45;;;;;;;14.80;9.20;;;;;;;16.28;92.26;101208.03;5053410;28;20033;-73
2021/09/10 00:58:11;;;;;;;14.43;9.95;;;;;;;16.28;93.25;101212.59;5053940;28;20056;-73
2021/09/10 01:00:37;;;;;;;15.15;9.50;;;;;;;16.25;93.44;101210.22;5053977;28;20461;-72
2021/09/10 01:03:02;;;;;;;14.73;8.95;;;;;;;16.25;93.39;101211.06;5054380;28;20090;-73
2021/09/10 01:05:28;;;;;;;14.93;10.05;;;;;;;16.26;93.23;101209.22;5053417;28;20401;-73
2021/09/10 01:07:56;;;;;;;16.75;10.27;;;;;;;16.27;93.29;101210.91;5053991;28;20044;-73
2021/09/10 01:10:22;;;;;;;17.77;11.38;;;;;;;16.29;93.71;101204.34;5053629;28;20124;-73
2021/09/10 01:12:49;;;;;;;16.23;11.98;;;;;;;16.32;93.55;101211.25;5054116;28;20033;-73
2021/09/10 01:15:15;;;;;;;27.05;16.52;;;;;;;16.38;93.73;101206.03;5054297;28;20036;-73
2021/09/10 01:17:41;;;;;;;28.77;17.23;;;;;;;16.45;94.30;101202.66;5053058;28;20714;-73
2021/09/10 01:20:07;;;;;;;24.33;16.05;;;;;;;16.50;94.48;101201.16;5054054;28;20094;-73
2021/09/10 01:22:34;;;;;;;26.65;16.63;;;;;;;16.54;94.28;101201.66;5054091;28;20029;-74
2021/09/10 01:25:17;;;;;;;26.48;17.10;;;;;;;16.61;94.14;101205.34;5055400;28;20033;-73
2021/09/10 01:27:45;;;;;;;25.77;17.10;;;;;;;16.69;94.39;101207.16;5053551;28;20269;-74
2021/09/10 01:30:13;;;;;;;26.90;17.20;;;;;;;16.74;94.24;101205.66;5054215;28;20036;-73
2021/09/10 01:32:39;;;;;;;26.42;17.75;;;;;;;16.84;94.13;101202.78;5053269;28;20044;-73
2021/09/10 01:35:06;;;;;;;27.30;17.77;;;;;;;16.88;94.04;101206.84;5056368;28;20474;-72
2021/09/10 01:37:31;;;;;;;31.42;17.38;;;;;;;16.91;93.75;101206.50;5055485;28;20113;-74
2021/09/10 01:39:57;;;;;;;30.25;17.70;;;;;;;16.94;93.28;101204.47;5055277;28;20501;-74
2021/09/10 01:42:22;;;;;;;24.45;15.98;;;;;;;16.95;92.85;101201.63;5053747;28;20032;-73
2021/09/10 01:44:48;;;;;;;29.08;18.00;;;;;;;16.96;93.33;101202.44;5052936;28;20112;-74
2021/09/10 01:47:13;;;;;;;29.08;18.50;;;;;;;16.97;93.38;101196.06;5053417;28;20119;-74
2021/09/10 01:49:38;;;;;;;27.35;16.75;;;;;;;16.95;93.29;101198.09;5052480;28;20396;-73
2021/09/10 01:52:04;;;;;;;29.23;19.50;;;;;;;16.97;93.59;101196.88;5053294;28;20167;-73
2021/09/10 01:54:30;;;;;;;33.88;20.75;;;;;;;16.97;93.61;101193.38;5052695;28;20044;-73
2021/09/10 01:56:55;;;;;;;32.13;19.83;;;;;;;17.00;93.53;101201.91;5051678;28;20029;-73
2021/09/10 01:59:21;;;;;;;29.77;19.38;;;;;;;17.02;93.65;101193.72;5053256;28;20060;-74
2021/09/10 02:01:46;;;;;;;30.70;19.80;;;;;;;17.03;93.37;101204.28;5052606;28;20094;-73
2021/09/10 02:04:12;;;;;;;33.55;21.13;;;;;;;17.06;93.55;101187.81;5052900;28;20036;-73
2021/09/10 02:06:37;;;;;;;35.25;21.40;;;;;;;17.10;93.75;101194.50;5052026;28;20029;-73
2021/09/10 02:09:02;;;;;;;35.13;22.52;;;;;;;17.12;93.77;101199.69;5053028;28;20033;-73
2021/09/10 02:11:28;;;;;;;38.72;23.05;;;;;;;17.15;94.23;101199.34;5052280;28;20025;-73
2021/09/10 02:13:54;;;;;;;37.60;22.30;;;;;;;17.17;93.87;101196.53;5053058;28;20033;-73
2021/09/10 02:16:19;;;;;;;35.25;21.90;;;;;;;17.19;93.92;101195.31;5052879;28;20037;-73
2021/09/10 02:18:45;;;;;;;37.00;24.15;;;;;;;17.21;93.99;101197.81;5052025;28;20035;-73
2021/09/10 02:21:10;;;;;;;36.53;22.98;;;;;;;17.26;94.20;101206.22;5052839;28;20370;-73
2021/09/10 02:23:36;;;;;;;37.78;24.17;;;;;;;17.28;94.32;101210.38;5052289;28;20036;-73
2021/09/10 02:26:02;;;;;;;34.67;23.58;;;;;;;17.30;93.97;101217.47;5052831;28;20087;-73
2021/09/10 02:28:28;;;;;;;40.58;24.90;;;;;;;17.29;93.94;101211.25;5052426;28;20052;-73
2021/09/10 02:30:53;;;;;;;37.05;24.00;;;;;;;17.27;93.81;101214.13;5051893;28;20033;-73
2021/09/10 02:33:19;;;;;;;35.85;22.02;;;;;;;17.24;93.59;101208.22;5052794;28;20095;-73
2021/09/10 02:35:44;;;;;;;42.47;24.80;;;;;;;17.20;94.06;101207.75;5051793;28;20055;-73
2021/09/10 02:38:10;;;;;;;34.25;22.60;;;;;;;17.17;94.10;101210.78;5052296;28;20535;-73
2021/09/10 02:40:35;;;;;;;34.40;22.42;;;;;;;17.12;94.03;101212.31;5051981;28;20116;-73
2021/09/10 02:43:01;;;;;;;40.15;24.60;;;;;;;17.06;93.71;101216.53;5052589;28;20089;-73
2021/09/10 02:45:27;;;;;;;42.03;25.15;;;;;;;17.02;94.45;101215.22;5052368;28;20074;-73
2021/09/10 02:47:52;;;;;;;43.08;24.98;;;;;;;16.97;94.72;101215.69;5051919;28;20373;-73
2021/09/10 02:50:18;;;;;;;48.67;28.33;;;;;;;16.91;94.83;101201.13;5052265;28;20370;-73
2021/09/10 02:52:43;;;;;;;44.03;26.35;;;;;;;16.89;94.92;101210.38;5051891;28;20382;-73
2021/09/10 02:55:09;;;;;;;44.33;25.35;;;;;;;16.83;95.29;101208.34;5051280;28;20037;-73
2021/09/10 02:57:35;;;;;;;39.20;24.38;;;;;;;16.80;95.24;101206.00;5051380;28;20108;-73
2021/09/10 03:00:01;;;;;;;43.67;26.27;;;;;;;16.77;95.54;101207.16;5052881;28;20051;-73
2021/09/10 03:02:26;;;;;;;55.47;28.42;;;;;;;16.80;95.74;101216.75;5052453;28;20124;-73
2021/09/10 03:04:51;;;;;;;57.63;30.48;;;;;;;16.80;96.31;101212.19;5050441;28;20037;-73
2021/09/10 03:07:17;;;;;;;56.72;28.85;;;;;;;16.83;96.48;101216.41;5051095;28;20119;-73
2021/09/10 03:09:43;;;;;;;52.70;28.50;;;;;;;16.85;96.68;101214.38;5051437;28;20500;-73
2021/09/10 03:12:09;;;;;;;58.72;28.48;;;;;;;16.90;96.91;101212.88;5052408;28;20036;-73
2021/09/10 03:14:34;;;;;;;53.58;29.52;;;;;;;16.95;97.21;101212.38;5051608;28;20040;-74
2021/09/10 03:16:59;;;;;;;51.35;29.23;;;;;;;16.99;97.30;101215.53;5052439;28;20068;-73
2021/09/10 03:19:26;;;;;;;52.15;26.45;;;;;;;17.03;96.91;101211.50;5053926;28;20068;-73
2021/09/10 03:21:52;;;;;;;39.90;23.35;;;;;;;17.04;96.94;101215.88;5055792;28;20032;-73
2021/09/10 03:24:18;;;;;;;52.40;28.63;;;;;;;17.06;96.98;101209.31;5055109;28;20059;-73
2021/09/10 03:26:43;;;;;;;58.63;28.50;;;;;;;17.09;97.05;101219.72;5055257;28;20037;-73
2021/09/10 03:29:09;;;;;;;54.25;28.25;;;;;;;17.11;96.92;101211.50;5038259;28;20079;-73
2021/09/10 03:31:35;;;;;;;46.72;26.35;;;;;;;17.13;96.81;101216.69;5056113;28;20025;-73
2021/09/10 03:34:01;;;;;;;43.60;24.17;;;;;;;17.09;96.67;101211.66;5055206;28;20127;-73
2021/09/10 03:36:27;;;;;;;42.50;22.02;;;;;;;17.11;96.60;101214.19;5056095;28;20056;-73
2021/09/10 03:38:52;;;;;;;48.38;26.92;;;;;;;17.14;96.50;101212.97;5055204;28;20029;-73
2021/09/10 03:41:18;;;;;;;48.40;27.67;;;;;;;17.18;96.51;101212.47;5055901;28;20037;-73
2021/09/10 03:43:44;;;;;;;46.90;26.75;;;;;;;17.21;96.62;101209.44;5055304;28;20053;-73
2021/09/10 03:46:10;;;;;;;47.13;25.70;;;;;;;17.20;96.57;101213.13;5055874;28;20115;-73
2021/09/10 03:48:36;;;;;;;48.60;27.38;;;;;;;17.18;96.57;101207.09;5055751;28;20090;-73
2021/09/10 03:51:01;;;;;;;42.90;25.00;;;;;;;17.15;96.40;101206.59;5055101;28;20020;-73
2021/09/10 03:53:27;;;;;;;48.95;25.75;;;;;;;17.10;96.46;101207.94;5055739;28;20033;-73
2021/09/10 03:55:52;;;;;;;55.60;27.63;;;;;;;17.08;96.79;101209.97;5055080;28;20420;-73
2021/09/10 03:58:18;;;;;;;53.10;28.27;;;;;;;17.06;96.78;101213.84;5055224;28;20053;-73
2021/09/10 04:00:44;;;;;;;53.65;28.45;;;;;;;17.05;96.91;101215.69;5055040;28;20025;-73
2021/09/10 04:03:09;;;;;;;57.75;32.03;;;;;;;17.06;97.27;101212.00;5055622;28;20037;-73
2021/09/10 04:05:34;;;;;;;61.88;29.77;;;;;;;17.06;97.32;101214.69;5055208;28;20112;-73
2021/09/10 04:08:00;;;;;;;52.80;28.80;;;;;;;17.02;97.38;101217.91;5054621;28;20480;-73
2021/09/10 04:10:26;;;;;;;55.00;29.20;;;;;;;16.97;96.98;101220.25;5055277;28;20029;-73
2021/09/10 04:12:51;;;;;;;51.38;29.48;;;;;;;16.95;97.19;101222.28;5054323;28;20112;-73
2021/09/10 04:15:17;;;;;;;59.40;31.45;;;;;;;16.96;97.43;101223.94;5055299;28;20082;-73
2021/09/10 04:17:42;;;;;;;57.00;30.55;;;;;;;16.94;97.41;101217.91;5054578;28;20432;-73
2021/09/10 04:20:08;;;;;;;57.85;30.15;;;;;;;16.93;97.65;101217.09;5055142;28;20035;-73
2021/09/10 04:22:34;;;;;;;64.85;33.65;;;;;;;16.94;97.60;101210.69;5055151;28;20120;-73
2021/09/10 04:24:59;;;;;;;61.30;31.00;;;;;;;16.94;97.64;101218.75;5054494;28;20041;-73
2021/09/10 04:27:24;;;;;;;60.95;31.83;;;;;;;16.93;97.64;101217.09;5054962;28;20095;-73
2021/09/10 04:29:50;;;;;;;62.38;31.08;;;;;;;16.92;97.61;101224.28;5052679;28;20389;-73
2021/09/10 04:32:15;;;;;;;65.93;33.33;;;;;;;16.93;97.83;101217.09;5054644;28;20397;-73
2021/09/10 04:34:40;;;;;;;58.42;33.33;;;;;;;16.91;97.70;101213.72;5054644;28;20390;-73
2021/09/10 04:37:06;;;;;;;68.75;36.08;;;;;;;16.92;97.84;101216.22;5054166;28;20029;-73
2021/09/10 04:39:33;;;;;;;73.88;37.70;;;;;;;16.98;97.78;101214.69;5054730;28;20037;-73
2021/09/10 04:41:58;;;;;;;65.82;33.30;;;;;;;17.01;98.08;101214.34;5054305;28;20033;-72
2021/09/10 04:44:24;;;;;;;66.93;33.38;;;;;;;17.01;97.74;101216.22;5054557;28;20036;-73
2021/09/10 04:46:49;;;;;;;68.25;32.90;;;;;;;16.99;97.70;101211.00;5053848;28;20163;-73
2021/09/10 04:49:14;;;;;;;66.82;34.45;;;;;;;16.98;97.66;101208.50;5054634;28;20029;-73
2021/09/10 04:51:40;;;;;;;65.90;32.72;;;;;;;16.99;97.73;101207.47;5054615;28;20033;-73
2021/09/10 04:54:05;;;;;;;57.47;31.25;;;;;;;16.95;97.57;101203.47;5053816;28;20033;-72
2021/09/10 04:56:31;;;;;;;64.20;33.85;;;;;;;16.96;97.43;101202.44;5054196;28;20476;-72
2021/09/10 04:58:56;;;;;;;61.13;31.98;;;;;;;16.91;97.59;101206.50;5053564;28;20108;-73
2021/09/10 05:01:21;;;;;;;67.05;34.72;;;;;;;16.89;97.64;101207.69;5054463;28;20025;-73
2021/09/10 05:03:47;;;;;;;73.30;36.10;;;;;;;16.86;97.55;101205.31;5053656;28;20032;-73
2021/09/10 05:06:14;;;;;;;65.85;35.45;;;;;;;16.85;97.77;101212.50;5054086;28;20033;-73
2021/09/10 05:08:39;;;;;;;62.88;32.85;;;;;;;16.84;97.64;101210.00;5054118;28;20083;-73
2021/09/10 05:11:04;;;;;;;74.53;35.63;;;;;;;16.81;97.79;101204.97;5053367;28;20052;-73
2021/09/10 05:13:30;;;;;;;67.90;34.50;;;;;;;16.80;97.77;101201.44;5054244;28;20108;-73
2021/09/10 05:15:55;;;;;;;64.28;33.58;;;;;;;16.80;98.21;101206.81;5053303;28;20063;-73
2021/09/10 05:18:20;;;;;;;72.57;36.42;;;;;;;16.78;98.05;101213.38;5053738;28;20033;-73
2021/09/10 05:20:46;;;;;;;66.63;34.05;;;;;;;16.74;98.14;101212.88;5053860;28;20184;-73
2021/09/10 05:23:11;;;;;;;69.65;35.85;;;;;;;16.71;98.18;101222.13;5052301;28;20496;-73
2021/09/10 05:25:36;;;;;;;70.05;35.13;;;;;;;16.69;98.20;101225.97;5053708;28;20033;-73
2021/09/10 05:28:02;;;;;;;64.65;35.75;;;;;;;16.68;98.00;101219.78;5053138;28;20041;-73
2021/09/10 05:30:27;;;;;;;69.68;35.00;;;;;;;16.68;98.41;101227.00;5053893;28;20036;-73
2021/09/10 05:32:53;;;;;;;73.63;35.85;;;;;;;16.70;98.17;101220.44;5053283;28;20071;-73
2021/09/10 05:35:18;;;;;;;71.85;37.35;;;;;;;16.72;98.49;101231.88;5053638;28;20060;-73
2021/09/10 05:37:43;;;;;;;74.22;36.63;;;;;;;16.76;98.49;101235.03;5053678;28;20082;-73
2021/09/10 05:40:09;;;;;;;87.85;39.72;;;;;;;16.79;98.77;101240.06;5053182;28;20311;-73
2021/09/10 05:42:35;;;;;;;75.35;37.20;;;;;;;16.81;98.91;101239.91;5052901;28;20035;-73
2021/09/10 05:45:01;;;;;;;69.38;35.85;;;;;;;16.84;98.83;101245.78;5053249;28;20074;-73
2021/09/10 05:47:26;;;;;;;63.53;33.25;;;;;;;16.87;98.60;101256.22;5053304;28;20432;-73
2021/09/10 05:49:52;;;;;;;67.30;34.10;;;;;;;16.94;98.71;101251.00;5053361;28;20040;-73
2021/09/10 05:52:17;;;;;;;62.67;32.90;;;;;;;16.94;98.52;101242.94;5053594;28;20043;-73
2021/09/10 05:54:43;;;;;;;59.30;33.53;;;;;;;16.95;98.08;101252.69;5053248;28;20025;-73
2021/09/10 05:57:08;;;;;;;61.45;32.03;;;;;;;16.93;98.17;101254.72;5052722;28;20033;-73
2021/09/10 05:59:34;;;;;;;63.50;35.53;;;;;;;16.99;98.29;101261.22;5053943;28;20060;-73
2021/09/10 06:01:59;;;;;;;63.20;34.22;;;;;;;17.05;98.50;101261.41;5052696;28;20033;-73
2021/09/10 06:04:25;;;;;;;57.78;31.88;;;;;;;17.13;98.40;101257.00;5051990;28;20040;-73
2021/09/10 06:06:51;;;;;;;59.97;32.33;;;;;;;17.21;98.36;101262.34;5053110;28;20029;-73
2021/09/10 06:09:17;;;;;;;51.85;29.63;;;;;;;17.27;98.26;101259.81;5052213;28;20029;-73
2021/09/10 06:11:42;;;;;;;51.05;29.65;;;;;;;17.36;97.77;101266.03;5053288;28;20036;-72
2021/09/10 06:14:08;;;;;;;57.85;29.65;;;;;;;17.45;97.28;101267.66;5052107;28;20099;-73
2021/09/10 06:16:34;;;;;;;49.30;27.00;;;;;;;17.56;96.68;101271.81;5052792;28;20037;-73
2021/09/10 06:19:00;;;;;;;44.92;26.05;;;;;;;17.66;96.32;101278.84;5052294;28;20083;-73
2021/09/10 06:21:26;;;;;;;43.75;25.33;;;;;;;17.73;95.50;101271.75;5052937;28;20032;-72
2021/09/10 06:23:52;;;;;;;43.63;24.40;;;;;;;17.79;95.34;101277.28;5052825;28;20036;-73
2021/09/10 06:26:18;;;;;;;40.53;24.13;;;;;;;17.85;94.31;101283.78;5052317;28;20385;-73
2021/09/10 06:28:44;;;;;;;39.22;23.98;;;;;;;17.89;94.45;101277.06;5052418;28;20068;-73
2021/09/10 06:31:10;;;;;;;36.95;23.27;;;;;;;17.96;94.26;101282.59;5052250;28;20483;-73
2021/09/10 06:33:35;;;;;;;36.60;22.20;;;;;;;18.02;93.58;101278.34;5052648;28;20033;-73
2021/09/10 06:36:01;;;;;;;39.47;22.38;;;;;;;18.09;93.20;101282.00;5051861;28;20469;-74
2021/09/10 06:38:26;;;;;;;31.40;21.35;;;;;;;18.13;93.19;101291.41;5052228;28;20067;-73
2021/09/10 06:40:52;;;;;;;34.35;21.48;;;;;;;18.17;92.30;101281.97;5052724;28;20381;-73
2021/09/10 06:43:17;;;;;;;34.35;21.15;;;;;;;18.25;92.13;101289.97;5050753;28;20393;-73
2021/09/10 06:45:44;;;;;;;37.17;20.27;;;;;;;18.35;92.12;101294.28;5052288;28;20037;-73
2021/09/10 06:48:11;;;;;;;37.60;21.33;;;;;;;18.42;91.64;101298.78;5051492;28;20539;-71
2021/09/10 06:50:36;;;;;;;27.45;18.90;;;;;;;18.52;91.51;101298.53;5052405;28;20044;-73
2021/09/10 06:53:02;;;;;;;27.05;19.08;;;;;;;18.61;91.05;101299.31;5051771;28;20037;-73
2021/09/10 06:55:28;;;;;;;32.58;18.98;;;;;;;18.68;90.26;101298.41;5052579;28;20033;-72
2021/09/10 06:57:53;;;;;;;24.85;17.65;;;;;;;18.75;89.93;101306.63;5051826;28;20040;-72
2021/09/10 07:00:19;;;;;;;27.45;17.80;;;;;;;18.80;89.17;101309.59;5051812;28;20203;-72
2021/09/10 07:02:44;;;;;;;22.55;16.70;;;;;;;18.87;89.33;101312.44;5052396;28;20067;-72
2021/09/10 07:05:10;;;;;;;26.50;16.13;;;;;;;18.89;88.01;101307.69;5051877;28;20111;-72
2021/09/10 07:07:36;;;;;;;28.27;15.77;;;;;;;18.95;87.84;101309.66;5052342;28;20037;-72
2021/09/10 07:10:02;;;;;;;25.42;15.50;;;;;;;19.00;87.62;101306.41;5051662;28;20078;-73
2021/09/10 07:12:28;;;;;;;26.63;15.75;;;;;;;19.08;87.29;101314.44;5051204;28;20033;-72
2021/09/10 07:14:53;;;;;;;21.70;14.65;;;;;;;19.17;86.86;101317.88;5052307;28;20036;-72
2021/09/10 07:17:20;;;;;;;27.83;14.65;;;;;;;19.27;86.74;101313.06;5051467;28;20032;-72
2021/09/10 07:19:46;;;;;;;20.52;14.32;;;;;;;19.40;86.47;101319.66;5052247;28;20033;-72
2021/09/10 07:22:11;;;;;;;39.45;15.35;;;;;;;19.52;85.80;101329.78;5051700;28;20485;-72
2021/09/10 07:24:37;;;;;;;23.75;14.00;;;;;;;19.68;85.28;101325.25;5052164;28;20492;-72
2021/09/10 07:27:03;;;;;;;21.65;13.18;;;;;;;19.87;84.67;101323.84;5051814;28;20037;-72
2021/09/10 07:29:28;;;;;;;19.08;12.02;;;;;;;19.99;82.60;101321.47;5051997;28;20067;-72
2021/09/10 07:31:55;;;;;;;18.80;11.68;;;;;;;20.08;82.21;101333.88;5052111;28;20044;-71
2021/09/10 07:34:20;;;;;;;15.85;10.82;;;;;;;20.16;81.28;101328.34;5051388;28;20041;-72
2021/09/10 07:36:49;;;;;;;17.60;11.10;;;;;;;20.23;80.93;101331.13;5051802;28;20037;-72
2021/09/10 07:39:17;;;;;;;18.33;10.20;;;;;;;20.28;80.44;101336.78;5051313;28;20041;-72
2021/09/10 07:41:43;;;;;;;16.63;10.80;;;;;;;20.39;79.92;101335.44;5051966;28;20059;-72
2021/09/10 07:44:09;;;;;;;20.15;10.63;;;;;;;20.54;79.50;101343.50;5051129;28;20461;-73
2021/09/10 07:46:34;;;;;;;16.33;10.45;;;;;;;20.59;78.90;101341.88;5052056;28;20362;-72
2021/09/10 07:49:00;;;;;;;14.93;10.15;;;;;;;20.59;78.92;101341.88;5051946;28;20087;-73
2021/09/10 07:51:25;;;;;;;11.25;9.48;;;;;;;20.65;79.07;101350.28;5051314;28;20083;-72
2021/09/10 07:53:51;;;;;;;17.08;10.43;;;;;;;20.77;77.66;101346.03;5051897;28;20099;-72
2021/09/10 07:56:16;;;;;;;16.38;10.25;;;;;;;20.90;77.51;101348.00;5051307;28;20393;-72
2021/09/10 07:58:42;;;;;;;18.98;10.30;;;;;;;21.21;76.48;101354.91;5051370;28;20077;-72
2021/09/10 08:01:07;;;;;;;13.90;10.32;;;;;;;21.36;76.13;101344.81;5051112;28;20069;-73
2021/09/10 08:03:34;;;;;;;11.98;9.63;;;;;;;21.58;75.07;101358.31;5051680;28;20029;-71
2021/09/10 08:05:59;;;;;;;15.02;10.18;;;;;;;21.63;74.04;101351.25;5054166;28;20029;-72
2021/09/10 08:08:25;;;;;;;13.48;9.65;;;;;;;21.62;74.35;101360.41;5055038;28;20028;-72
2021/09/10 08:10:50;;;;;;;15.05;10.00;;;;;;;21.88;72.84;101358.88;5055456;28;20476;-73
2021/09/10 08:13:16;;;;;;;16.25;9.77;;;;;;;22.28;70.71;101356.31;5054650;28;20033;-72
2021/09/10 08:15:42;;;;;;;14.38;10.00;;;;;;;22.36;71.78;101361.59;5055360;28;20044;-73
2021/09/10 08:18:07;;;;;;;20.65;9.32;;;;;;;22.47;71.78;101365.56;5055207;28;20029;-72
2021/09/10 08:20:32;;;;;;;12.82;9.00;;;;;;;22.56;70.86;101371.63;5054245;28;20037;-72
2021/09/10 08:22:58;;;;;;;13.63;9.35;;;;;;;22.35;70.33;101365.31;5055291;28;20111;-72
2021/09/10 08:25:23;;;;;;;12.00;9.07;;;;;;;22.06;71.48;101366.44;5054585;28;20066;-72
2021/09/10 08:27:48;;;;;;;15.30;8.90;;;;;;;21.93;72.04;101369.09;5054822;28;20088;-72
2021/09/10 08:30:14;;;;;;;12.85;8.95;;;;;;;21.90;72.13;101364.09;5053137;28;20069;-73
2021/09/10 08:32:39;;;;;;;12.43;8.65;;;;;;;21.96;72.03;101363.28;5054982;28;20044;-72
2021/09/10 08:35:05;;;;;;;14.65;8.43;;;;;;;22.06;72.11;101361.03;5054973;28;20029;-72
2021/09/10 08:37:32;;;;;;;11.00;8.02;;;;;;;22.24;71.35;101378.59;5054188;28;20468;-72
2021/09/10 08:39:57;;;;;;;14.10;8.77;;;;;;;22.33;71.50;101367.41;5054587;28;20029;-72
2021/09/10 08:42:23;;;;;;;14.63;8.70;;;;;;;22.42;70.61;101375.34;5054136;28;20044;-72
2021/09/10 08:44:49;;;;;;;16.15;8.65;;;;;;;22.41;69.65;101374.53;5054801;28;20392;-72
2021/09/10 08:47:14;;;;;;;15.25;9.02;;;;;;;22.40;70.36;101380.97;5054101;28;20041;-73
2021/09/10 08:49:41;;;;;;;13.82;8.85;;;;;;;22.40;71.24;101380.16;5054491;28;20029;-72
2021/09/10 08:52:07;;;;;;;16.13;8.85;;;;;;;22.25;70.64;101377.56;5054692;28;20035;-72
2021/09/10 08:54:33;;;;;;;14.93;9.10;;;;;;;22.10;71.07;101380.44;5053660;28;20040;-72
2021/09/10 08:56:58;;;;;;;18.02;8.27;;;;;;;21.89;71.90;101384.09;5054628;28;20123;-72
2021/09/10 08:59:25;;;;;;;14.82;9.55;;;;;;;21.66;72.49;101387.91;5053805;28;20049;-72
2021/09/10 09:01:54;;;;;;;17.48;10.48;;;;;;;21.56;72.23;101395.59;5054390;28;20037;-72
2021/09/10 09:04:21;;;;;;;11.65;9.52;;;;;;;21.41;73.26;101395.66;5053773;28;20071;-72
2021/09/10 09:06:53;;;;;;;12.85;10.52;;;;;;;21.31;73.41;101394.13;5054306;28;20036;-72
2021/09/10 09:09:42;;;;;;;15.48;10.63;;;;;;;21.23;74.09;101396.97;5053413;28;20029;-72
2021/09/10 09:12:31;;;;;;;17.88;10.63;;;;;;;21.21;74.40;101395.50;5054179;28;20472;-71
2021/09/10 09:15:05;;;;;;;15.55;11.32;;;;;;;21.20;72.84;101394.66;5054228;28;20029;-71
2021/09/10 09:17:39;;;;;;;13.95;11.73;;;;;;;21.10;73.82;101396.88;5053424;28;20029;-72
2021/09/10 09:20:25;;;;;;;16.83;11.43;;;;;;;20.98;74.51;101399.25;5054010;28;20141;-72
2021/09/10 09:23:08;;;;;;;16.05;12.10;;;;;;;20.86;75.00;101403.53;5053966;28;20071;-71
2021/09/10 09:25:34;;;;;;;16.50;13.00;;;;;;;20.79;75.83;101408.84;5053224;28;20025;-72
2021/09/10 09:28:23;;;;;;;27.30;15.93;;;;;;;20.83;74.92;101407.44;5053846;28;20120;-72
2021/09/10 09:30:52;;;;;;;21.33;15.65;;;;;;;20.98;74.01;101401.97;5053722;28;20029;-72
2021/09/10 09:33:18;;;;;;;22.38;16.75;;;;;;;21.08;74.17;101413.31;5053071;28;20061;-72
2021/09/10 09:35:46;;;;;;;19.88;14.75;;;;;;;21.13;73.30;101410.00;5053948;28;20059;-73
2021/09/10 09:38:19;;;;;;;18.75;14.73;;;;;;;21.20;72.41;101404.63;5053661;28;20032;-72
2021/09/10 09:40:46;;;;;;;20.13;16.15;;;;;;;21.22;72.33;101403.41;5053804;28;20036;-73
2021/09/10 09:43:24;;;;;;;19.27;16.45;;;;;;;21.17;73.81;101413.16;5053590;28;20033;-72
2021/09/10 09:45:51;;;;;;;20.45;16.67;;;;;;;21.15;74.31;101421.47;5053722;28;20025;-72
2021/09/10 09:48:19;;;;;;;24.45;17.90;;;;;;;21.08;73.47;101421.41;5053422;28;20029;-71
2021/09/10 09:50:45;;;;;;;26.77;19.88;;;;;;;21.00;73.36;101421.53;5053489;28;20040;-72
2021/09/10 09:53:14;;;;;;;24.85;18.55;;;;;;;20.83;73.82;101423.69;5053467;28;20033;-71
2021/09/10 09:55:44;;;;;;;27.13;19.52;;;;;;;20.64;75.47;101419.69;5053058;28;20485;-71
2021/09/10 09:58:10;;;;;;;26.35;19.48;;;;;;;20.50;75.54;101415.19;5053428;28;20481;-71
2021/09/10 10:00:38;;;;;;;26.40;18.77;;;;;;;20.51;75.49;101420.41;5052617;28;20037;-72
2021/09/10 10:03:05;;;;;;;25.25;17.70;;;;;;;20.48;76.21;101426.19;5053275;28;20112;-71
2021/09/10 10:05:40;;;;;;;31.10;18.42;;;;;;;20.46;76.71;101420.13;5052306;28;20056;-72
2021/09/10 10:08:10;;;;;;;21.17;17.13;;;;;;;20.35;76.43;101418.75;5053495;28;20025;-72
2021/09/10 10:10:48;;;;;;;29.73;17.65;;;;;;;20.31;77.01;101422.88;5052655;28;20112;-72
2021/09/10 10:13:26;;;;;;;26.55;17.08;;;;;;;20.35;77.25;101424.16;5053215;28;20032;-73
2021/09/10 10:15:52;;;;;;;25.02;16.75;;;;;;;20.43;77.97;101417.81;5053487;28;20025;-72
2021/09/10 10:18:47;;;;;;;26.65;16.50;;;;;;;20.59;76.79;101425.69;5053489;28;20056;-72
2021/09/10 10:21:14;;;;;;;32.30;15.63;;;;;;;20.64;75.34;101414.28;5044035;28;20131;-72
2021/09/10 10:23:43;;;;;;;23.85;16.77;;;;;;;20.82;75.63;101426.56;5052314;28;20061;-72
2021/09/10 10:26:19;;;;;;;19.60;15.65;;;;;;;20.98;74.83;101418.19;5052854;28;20059;-72
2021/09/10 10:28:50;;;;;;;25.27;17.60;;;;;;;21.17;74.09;101419.41;5052006;28;20424;-71
2021/09/10 10:31:17;;;;;;;26.45;16.85;;;;;;;21.40;74.11;101427.28;5053024;28;20453;-72
2021/09/10 10:34:09;;;;;;;20.10;15.93;;;;;;;21.73;72.24;101429.41;5051839;28;20634;-72
2021/09/10 10:36:36;;;;;;;22.95;16.20;;;;;;;22.42;70.96;101427.69;5051462;28;20049;-72
2021/09/10 10:39:08;;;;;;;21.70;17.20;;;;;;;22.98;68.29;101428.44;5052477;28;20025;-72
2021/09/10 10:42:12;;;;;;;20.75;16.77;;;;;;;23.32;66.13;101426.59;5051776;28;20047;-72
2021/09/10 10:44:37;;;;;;;19.70;16.80;;;;;;;23.81;64.57;101427.16;5010004;28;20080;-73
2021/09/10 10:47:07;;;;;;;22.10;17.55;;;;;;;23.82;62.97;101426.94;5010644;28;20038;-73
2021/09/10 10:49:49;;;;;;;20.58;18.48;;;;;;;23.95;62.92;101423.38;5030503;28;20541;-72
2021/09/10 10:52:33;;;;;;;18.27;16.08;;;;;;;24.27;61.62;101424.31;5052587;28;20032;-72
2021/09/10 10:55:17;;;;;;;17.38;15.20;;;;;;;24.54;62.43;101417.88;5052443;28;20041;-73
2021/09/10 10:57:43;;;;;;;15.80;13.55;;;;;;;24.92;59.97;101427.94;5052148;28;20040;-73
2021/09/10 11:00:32;;;;;;;14.52;11.70;;;;;;;24.97;59.87;101430.81;5051963;28;20064;-72
2021/09/10 11:03:13;;;;;;;14.80;11.40;;;;;;;24.89;60.63;101414.78;5052630;28;20029;-72
2021/09/10 11:05:43;;;;;;;12.15;9.88;;;;;;;24.59;59.56;101420.84;5051790;28;20068;-73
2021/09/10 11:08:09;;;;;;;12.93;9.18;;;;;;;24.25;59.64;101422.84;5052441;28;20029;-72
2021/09/10 11:10:34;;;;;;;11.20;9.07;;;;;;;23.95;62.16;101417.94;5051462;28;20537;-72
2021/09/10 11:13:00;;;;;;;11.68;9.23;;;;;;;23.82;62.96;101421.50;5052227;28;20029;-72